Time;durP1;ratioP1;P1;durP2;ratioP2;P2;SDS_P1;SDS_P2;PMS_P1;PMS_P2;Temp;Humidity;BMP_temperature;BMP_pressure;BME280_temperature;BME280_humidity;BME280_pressure;Samples;Min_cycle;Max_cycle;Signal;HPM_P1;HPM_P2
2023/07/12 00:03:19;;;;;;;5.88;4.60;;;;;;;;;;8326063;28;20804;-69
2023/07/12 00:07:21;;;;;;;7.32;4.20;;;;;;;;;;8324543;28;20029;-69
2023/07/12 00:11:22;;;;;;;9.40;4.40;;;;;;;;;;8327138;28;20808;-70
2023/07/12 00:15:25;;;;;;;6.22;4.13;;;;;;;;;;8326956;28;20070;-70
2023/07/12 00:19:25;;;;;;;7.93;4.63;;;;;;;;;;8327309;28;20485;-69
2023/07/12 00:23:25;;;;;;;5.45;4.07;;;;;;;;;;8325542;28;20036;-69
2023/07/12 00:27:26;;;;;;;5.65;4.13;;;;;;;;;;8323478;28;20547;-69
2023/07/12 00:31:26;;;;;;;6.37;4.10;;;;;;;;;;8320988;28;20376;-69
2023/07/12 00:35:26;;;;;;;6.40;4.20;;;;;;;;;;8315402;28;20036;-69
2023/07/12 00:39:26;;;;;;;7.00;4.30;;;;;;;;;;8317923;28;20025;-70
2023/07/12 00:43:40;;;;;;;6.60;4.23;;;;;;;;;;8318722;28;20048;-69
2023/07/12 00:47:40;;;;;;;8.13;3.97;;;;;;;;;;8318519;28;20068;-69
2023/07/12 00:51:52;;;;;;;7.68;4.07;;;;;;;;;;8321689;28;20032;-69
2023/07/12 00:55:57;;;;;;;9.38;4.25;;;;;;;;;;8320952;28;20409;-69
2023/07/12 01:00:05;;;;;;;8.45;4.00;;;;;;;;;;8321829;28;20132;-69
2023/07/12 01:04:06;;;;;;;7.43;4.43;;;;;;;;;;8317271;28;20048;-69
2023/07/12 01:08:06;;;;;;;5.93;3.80;;;;;;;;;;8320667;28;20021;-69
2023/07/12 01:12:07;;;;;;;7.32;3.95;;;;;;;;;;8315786;28;20021;-70
2023/07/12 01:16:07;;;;;;;7.70;4.32;;;;;;;;;;8318120;28;20033;-69
2023/07/12 01:20:08;;;;;;;6.78;4.15;;;;;;;;;;8321450;28;20029;-69
2023/07/12 01:24:08;;;;;;;6.55;4.05;;;;;;;;;;8319483;28;20021;-69
2023/07/12 01:28:09;;;;;;;8.07;4.70;;;;;;;;;;8321708;28;20025;-69
2023/07/12 01:32:09;;;;;;;6.97;3.97;;;;;;;;;;8320338;28;20826;-69
2023/07/12 01:36:10;;;;;;;8.45;4.10;;;;;;;;;;8321158;28;20033;-69
2023/07/12 01:40:10;;;;;;;6.35;3.90;;;;;;;;;;8321682;28;20036;-69
2023/07/12 01:44:11;;;;;;;6.80;4.05;;;;;;;;;;8300689;28;20706;-70
2023/07/12 01:48:11;;;;;;;6.20;4.03;;;;;;;;;;8319603;28;20939;-69
2023/07/12 01:52:11;;;;;;;7.85;3.72;;;;;;;;;;8318754;28;20025;-69
2023/07/12 01:56:12;;;;;;;8.43;4.38;;;;;;;;;;8318780;28;20032;-69
2023/07/12 02:00:13;;;;;;;10.20;3.97;;;;;;;;;;8325507;28;20147;-69
2023/07/12 02:04:13;;;;;;;8.85;4.25;;;;;;;;;;8324861;28;20071;-69
2023/07/12 02:08:13;;;;;;;8.00;3.92;;;;;;;;;;8326035;28;20032;-70
2023/07/12 02:12:14;;;;;;;8.98;3.53;;;;;;;;;;8325627;28;20024;-70
2023/07/12 02:16:14;;;;;;;7.27;3.73;;;;;;;;;;8325363;28;20036;-70
2023/07/12 02:20:14;;;;;;;7.70;3.78;;;;;;;;;;8325313;28;20297;-70
2023/07/12 02:24:14;;;;;;;8.23;4.13;;;;;;;;;;8326085;28;20140;-70
2023/07/12 02:28:15;;;;;;;7.85;3.60;;;;;;;;;;8323928;28;20832;-70
2023/07/12 02:32:15;;;;;;;5.97;4.00;;;;;;;;;;8325614;28;20033;-70
2023/07/12 02:36:15;;;;;;;7.78;3.78;;;;;;;;;;8305380;28;20036;-70
2023/07/12 02:40:15;;;;;;;7.88;3.67;;;;;;;;;;8326940;28;20040;-70
2023/07/12 02:44:16;;;;;;;8.10;3.38;;;;;;;;;;8325610;28;20036;-70
2023/07/12 02:48:16;;;;;;;9.32;3.58;;;;;;;;;;8324100;28;20036;-70
2023/07/12 02:52:16;;;;;;;5.60;3.58;;;;;;;;;;8324352;28;20628;-70
2023/07/12 02:56:16;;;;;;;4.63;3.42;;;;;;;;;;8326171;28;20087;-70
2023/07/12 03:00:18;;;;;;;7.80;3.83;;;;;;;;;;8307570;28;20106;-70
2023/07/12 03:04:18;;;;;;;9.27;4.22;;;;;;;;;;8326132;28;20110;-70
2023/07/12 03:08:18;;;;;;;7.90;4.03;;;;;;;;;;8324416;28;20040;-71
2023/07/12 03:12:19;;;;;;;8.43;3.95;;;;;;;;;;8323900;28;20036;-70
2023/07/12 03:16:19;;;;;;;6.07;3.90;;;;;;;;;;8322782;28;20041;-69
2023/07/12 03:20:19;;;;;;;8.00;4.10;;;;;;;;;;8325911;28;20029;-70
2023/07/12 03:24:19;;;;;;;11.63;4.50;;;;;;;;;;8322921;28;20033;-69
2023/07/12 03:28:19;;;;;;;8.18;4.15;;;;;;;;;;8323477;28;20082;-69
2023/07/12 03:32:20;;;;;;;6.03;4.10;;;;;;;;;;8323250;28;20163;-70
2023/07/12 03:36:24;;;;;;;7.32;4.25;;;;;;;;;;8310837;28;20056;-69
2023/07/12 03:40:24;;;;;;;8.63;4.30;;;;;;;;;;8325585;28;20398;-69
2023/07/12 03:44:24;;;;;;;8.48;4.38;;;;;;;;;;8323382;28;20033;-69
2023/07/12 03:48:25;;;;;;;11.85;4.72;;;;;;;;;;8322715;28;20036;-70
2023/07/12 03:52:25;;;;;;;8.98;4.75;;;;;;;;;;8322848;28;20102;-69
2023/07/12 03:56:26;;;;;;;9.20;5.22;;;;;;;;;;8305282;28;20120;-70
2023/07/12 04:00:26;;;;;;;8.00;5.43;;;;;;;;;;8323028;28;20136;-69
2023/07/12 04:04:26;;;;;;;8.27;5.32;;;;;;;;;;8323457;28;20032;-69
2023/07/12 04:08:26;;;;;;;9.50;5.57;;;;;;;;;;8322959;28;20017;-70
2023/07/12 04:12:27;;;;;;;8.60;5.67;;;;;;;;;;8322265;28;20029;-70
2023/07/12 04:16:27;;;;;;;12.63;6.60;;;;;;;;;;8322385;28;20037;-70
2023/07/12 04:20:27;;;;;;;9.93;5.93;;;;;;;;;;8320394;28;20106;-70
2023/07/12 04:24:28;;;;;;;10.38;6.10;;;;;;;;;;8320971;28;20103;-70
2023/07/12 04:28:29;;;;;;;10.73;5.85;;;;;;;;;;8319568;28;20127;-70
2023/07/12 04:32:29;;;;;;;12.88;5.85;;;;;;;;;;8322150;28;20040;-69
2023/07/12 04:36:29;;;;;;;8.18;5.15;;;;;;;;;;8320133;28;20108;-69
2023/07/12 04:40:30;;;;;;;10.70;5.63;;;;;;;;;;8320213;28;20029;-69
2023/07/12 04:44:30;;;;;;;7.93;5.00;;;;;;;;;;8320547;28;20033;-69
2023/07/12 04:48:30;;;;;;;17.38;5.50;;;;;;;;;;8321821;28;20526;-69
2023/07/12 04:52:31;;;;;;;10.20;5.50;;;;;;;;;;8318874;28;20721;-70
2023/07/12 04:56:31;;;;;;;10.35;5.10;;;;;;;;;;8317561;28;20024;-70
2023/07/12 05:00:31;;;;;;;12.98;5.32;;;;;;;;;;8320032;28;20033;-70
2023/07/12 05:04:31;;;;;;;9.05;5.35;;;;;;;;;;8319835;28;20033;-70
2023/07/12 05:08:32;;;;;;;11.02;5.70;;;;;;;;;;8319470;28;20029;-70
2023/07/12 05:12:32;;;;;;;15.93;6.80;;;;;;;;;;8319378;28;20473;-70
2023/07/12 05:16:33;;;;;;;14.13;5.72;;;;;;;;;;8317142;28;20052;-70
2023/07/12 05:20:35;;;;;;;14.60;6.30;;;;;;;;;;8317519;28;20025;-69
2023/07/12 05:24:35;;;;;;;15.65;6.40;;;;;;;;;;8320494;28;20039;-68
2023/07/12 05:28:35;;;;;;;10.07;6.40;;;;;;;;;;8312839;28;20112;-69
2023/07/12 05:32:35;;;;;;;10.67;6.67;;;;;;;;;;8323854;28;20099;-68
2023/07/12 05:36:36;;;;;;;13.30;7.03;;;;;;;;;;8326966;28;20318;-68
2023/07/12 05:40:36;;;;;;;12.52;5.88;;;;;;;;;;8326506;28;20033;-68
2023/07/12 05:44:37;;;;;;;11.77;5.55;;;;;;;;;;8325562;28;20067;-68
2023/07/12 05:48:37;;;;;;;11.77;6.32;;;;;;;;;;8322747;28;20033;-68
2023/07/12 05:52:38;;;;;;;6.57;5.40;;;;;;;;;;8326998;28;20021;-68
2023/07/12 05:56:38;;;;;;;10.23;5.60;;;;;;;;;;8328846;28;20104;-68
2023/07/12 06:00:39;;;;;;;10.02;6.03;;;;;;;;;;8325417;28;20139;-68
2023/07/12 06:04:40;;;;;;;10.52;5.85;;;;;;;;;;8326101;28;20058;-69
2023/07/12 06:08:40;;;;;;;17.98;5.80;;;;;;;;;;8323627;28;20260;-68
2023/07/12 06:12:40;;;;;;;7.80;5.22;;;;;;;;;;8324317;28;20395;-68
2023/07/12 06:16:41;;;;;;;7.20;5.40;;;;;;;;;;8326243;28;20041;-68
2023/07/12 06:20:42;;;;;;;7.97;5.40;;;;;;;;;;8329287;28;20033;-69
2023/07/12 06:24:42;;;;;;;7.55;4.95;;;;;;;;;;8326044;28;20770;-70
2023/07/12 06:28:42;;;;;;;7.35;4.88;;;;;;;;;;8325665;28;20374;-70
2023/07/12 06:32:42;;;;;;;11.63;5.35;;;;;;;;;;8322723;28;20037;-70
2023/07/12 06:36:42;;;;;;;10.20;5.03;;;;;;;;;;8327682;28;20135;-70
2023/07/12 06:40:44;;;;;;;8.75;4.35;;;;;;;;;;8324147;28;20040;-70
2023/07/12 06:44:44;;;;;;;8.13;4.85;;;;;;;;;;8314966;28;21005;-71
2023/07/12 06:48:45;;;;;;;11.63;4.67;;;;;;;;;;8327204;28;20033;-70
2023/07/12 06:52:45;;;;;;;10.07;4.75;;;;;;;;;;8323432;28;20156;-70
2023/07/12 06:56:46;;;;;;;11.48;4.80;;;;;;;;;;8322031;28;20021;-70
2023/07/12 07:00:46;;;;;;;6.90;3.83;;;;;;;;;;8320555;28;20039;-70
2023/07/12 07:04:47;;;;;;;8.63;3.97;;;;;;;;;;8318552;28;20036;-70
2023/07/12 07:08:47;;;;;;;8.93;3.97;;;;;;;;;;8320320;28;20549;-70
2023/07/12 07:12:47;;;;;;;7.88;3.88;;;;;;;;;;8317226;28;20024;-72
2023/07/12 07:16:48;;;;;;;6.68;4.32;;;;;;;;;;8300373;28;20031;-72
2023/07/12 07:20:48;;;;;;;7.22;3.90;;;;;;;;;;8325382;28;20041;-72
2023/07/12 07:24:48;;;;;;;6.43;3.78;;;;;;;;;;8311377;28;20033;-72
2023/07/12 07:28:48;;;;;;;5.45;3.58;;;;;;;;;;8323628;28;20087;-72
2023/07/12 07:32:49;;;;;;;8.05;3.40;;;;;;;;;;8324520;28;20098;-72
2023/07/12 07:36:50;;;;;;;7.97;3.10;;;;;;;;;;8320241;28;20032;-72
2023/07/12 07:40:50;;;;;;;7.07;3.17;;;;;;;;;;8324515;28;20029;-73
2023/07/12 07:44:50;;;;;;;6.17;2.83;;;;;;;;;;8324194;28;20087;-72
2023/07/12 07:48:50;;;;;;;4.22;3.00;;;;;;;;;;8319488;28;20025;-72
2023/07/12 07:52:53;;;;;;;4.63;2.90;;;;;;;;;;8314719;28;20966;-72
2023/07/12 07:56:53;;;;;;;;;;;;;;;;;;8319429;28;20075;-72
2023/07/12 08:00:53;;;;;;;5.93;2.75;;;;;;;;;;8324131;28;19917;-73
2023/07/12 08:04:53;;;;;;;8.38;2.80;;;;;;;;;;8324733;28;20033;-73
2023/07/12 08:08:53;;;;;;;5.95;2.67;;;;;;;;;;8307767;28;20035;-72
2023/07/12 08:12:56;;;;;;;5.43;2.33;;;;;;;;;;8324647;28;20108;-73
2023/07/12 08:16:56;;;;;;;5.88;2.40;;;;;;;;;;8324512;28;20826;-74
2023/07/12 08:20:57;;;;;;;6.93;2.30;;;;;;;;;;8324896;28;20027;-73
2023/07/12 08:24:57;;;;;;;3.45;2.35;;;;;;;;;;8309743;28;20367;-72
2023/07/12 08:28:57;;;;;;;4.63;2.25;;;;;;;;;;8323239;28;20055;-73
2023/07/12 08:32:58;;;;;;;3.38;1.90;;;;;;;;;;8305328;28;20036;-72
2023/07/12 08:36:58;;;;;;;2.78;2.30;;;;;;;;;;8322529;28;20727;-73
2023/07/12 08:40:59;;;;;;;5.53;2.50;;;;;;;;;;8323745;28;20177;-72
2023/07/12 08:45:00;;;;;;;5.15;2.10;;;;;;;;;;8322783;28;20029;-72
2023/07/12 08:49:01;;;;;;;3.78;2.00;;;;;;;;;;8323568;28;20136;-71
2023/07/12 08:53:04;;;;;;;6.63;2.20;;;;;;;;;;8319204;28;20090;-73
2023/07/12 08:57:07;;;;;;;2.40;1.92;;;;;;;;;;8321070;28;20025;-72
2023/07/12 09:01:09;;;;;;;2.83;2.00;;;;;;;;;;8320668;28;20167;-73
2023/07/12 09:05:21;;;;;;;2.60;1.75;;;;;;;;;;8321943;28;20025;-72
2023/07/12 09:09:21;;;;;;;3.13;1.90;;;;;;;;;;8329437;28;20136;-73
2023/07/12 09:13:30;;;;;;;4.57;2.13;;;;;;;;;;8331322;28;20025;-73
2023/07/12 09:17:32;;;;;;;6.18;1.90;;;;;;;;;;8332797;28;20043;-74
2023/07/12 09:21:36;;;;;;;2.55;2.00;;;;;;;;;;8332901;28;20074;-73
2023/07/12 09:25:38;;;;;;;2.65;2.00;;;;;;;;;;8316170;28;20033;-73
2023/07/12 09:29:38;;;;;;;4.45;2.00;;;;;;;;;;8314730;28;20040;-72
2023/07/12 09:33:39;;;;;;;6.93;1.75;;;;;;;;;;8330087;28;20033;-72
2023/07/12 09:37:40;;;;;;;3.70;1.80;;;;;;;;;;8327711;28;20041;-73
2023/07/12 09:41:47;;;;;;;4.32;2.00;;;;;;;;;;8330874;28;20600;-73
2023/07/12 09:45:52;;;;;;;4.50;1.92;;;;;;;;;;8331465;28;20041;-72
2023/07/12 09:49:57;;;;;;;3.65;2.17;;;;;;;;;;8319752;28;20126;-72
2023/07/12 09:54:13;;;;;;;4.47;1.95;;;;;;;;;;8333964;28;20839;-73
2023/07/12 09:58:16;;;;;;;4.65;1.92;;;;;;;;;;8333124;28;20550;-72
2023/07/12 10:02:25;;;;;;;3.67;1.80;;;;;;;;;;8330924;28;20547;-72
2023/07/12 10:06:32;;;;;;;3.70;1.90;;;;;;;;;;8331598;28;20060;-72
2023/07/12 10:10:43;;;;;;;4.88;1.80;;;;;;;;;;8333089;28;20533;-73
2023/07/12 10:14:45;;;;;;;4.10;1.58;;;;;;;;;;8332544;28;21111;-72
2023/07/12 10:18:48;;;;;;;4.22;1.40;;;;;;;;;;8331288;28;20112;-72
2023/07/12 10:22:49;;;;;;;1.75;1.23;;;;;;;;;;8326985;28;20040;-72
2023/07/12 10:26:49;;;;;;;3.25;1.40;;;;;;;;;;8325267;28;20025;-72
2023/07/12 10:30:50;;;;;;;2.50;1.35;;;;;;;;;;8328270;28;20037;-72
2023/07/12 10:35:00;;;;;;;4.07;1.30;;;;;;;;;;8323353;28;20060;-73
2023/07/12 10:39:01;;;;;;;1.35;1.23;;;;;;;;;;8326876;28;20024;-73
2023/07/12 10:43:04;;;;;;;2.75;1.13;;;;;;;;;;8328007;28;20096;-72
2023/07/12 10:47:07;;;;;;;3.35;1.40;;;;;;;;;;8323395;28;20469;-73
2023/07/12 10:51:26;;;;;;;2.63;1.20;;;;;;;;;;8327625;28;20016;-72
2023/07/12 10:55:36;;;;;;;3.22;1.10;;;;;;;;;;8324860;28;20025;-72
2023/07/12 10:59:39;;;;;;;1.70;0.93;;;;;;;;;;8325336;28;20110;-72
2023/07/12 11:03:41;;;;;;;5.30;1.30;;;;;;;;;;8328383;28;20148;-73
2023/07/12 11:07:42;;;;;;;3.30;1.30;;;;;;;;;;8325672;28;20029;-73
2023/07/12 11:11:44;;;;;;;3.15;1.30;;;;;;;;;;8324632;28;20142;-72
2023/07/12 11:15:57;;;;;;;3.42;1.20;;;;;;;;;;8326906;28;20534;-72
2023/07/12 11:20:04;;;;;;;3.10;1.13;;;;;;;;;;8325818;28;20111;-73
2023/07/12 11:24:20;;;;;;;1.67;1.40;;;;;;;;;;8307775;28;20047;-72
2023/07/12 11:28:20;;;;;;;2.25;1.10;;;;;;;;;;8324947;28;20033;-72
2023/07/12 11:32:34;;;;;;;2.08;1.20;;;;;;;;;;8322474;28;20030;-73
2023/07/12 11:36:35;;;;;;;4.88;1.30;;;;;;;;;;8323079;28;20037;-73
2023/07/12 11:40:37;;;;;;;2.95;1.10;;;;;;;;;;8326247;28;20037;-72
2023/07/12 11:44:37;;;;;;;2.67;1.30;;;;;;;;;;8324081;28;20032;-72
2023/07/12 11:48:40;;;;;;;4.43;1.20;;;;;;;;;;8306755;28;20040;-73
2023/07/12 11:52:40;;;;;;;6.88;1.17;;;;;;;;;;8323972;28;20808;-72
2023/07/12 11:56:41;;;;;;;2.88;1.20;;;;;;;;;;8325208;28;20075;-72
2023/07/12 12:00:41;;;;;;;3.17;1.15;;;;;;;;;;8325134;28;20560;-72
2023/07/12 12:04:41;;;;;;;2.00;1.27;;;;;;;;;;8324529;28;20021;-72
2023/07/12 12:08:44;;;;;;;2.42;1.10;;;;;;;;;;8320147;28;20017;-73
2023/07/12 12:12:46;;;;;;;4.07;1.20;;;;;;;;;;8323776;28;20029;-73
2023/07/12 12:16:53;;;;;;;1.60;1.17;;;;;;;;;;8320116;28;20693;-72
2023/07/12 12:20:59;;;;;;;2.97;1.30;;;;;;;;;;8300418;28;20819;-72
2023/07/12 12:25:00;;;;;;;2.58;1.00;;;;;;;;;;8322502;28;20031;-70
2023/07/12 12:29:01;;;;;;;1.75;1.15;;;;;;;;;;8323531;28;20127;-71
2023/07/12 12:33:07;;;;;;;4.13;1.10;;;;;;;;;;8325202;28;20040;-70
2023/07/12 12:37:09;;;;;;;4.32;1.10;;;;;;;;;;8322984;28;20025;-71
2023/07/12 12:41:14;;;;;;;2.22;1.10;;;;;;;;;;8321029;28;20036;-71
2023/07/12 12:45:14;;;;;;;2.63;1.10;;;;;;;;;;8319697;28;20021;-70
2023/07/12 12:49:34;;;;;;;2.83;1.20;;;;;;;;;;8323124;28;20106;-70
2023/07/12 12:53:35;;;;;;;2.60;1.02;;;;;;;;;;8323921;28;20037;-70
2023/07/12 12:57:36;;;;;;;1.52;1.10;;;;;;;;;;8310101;28;20028;-70
2023/07/12 13:01:36;;;;;;;3.60;1.13;;;;;;;;;;8321913;28;20041;-70
2023/07/12 13:05:36;;;;;;;1.60;1.08;;;;;;;;;;8300195;28;20029;-70
2023/07/12 13:09:36;;;;;;;2.88;1.10;;;;;;;;;;8322008;28;20052;-70
2023/07/12 13:13:37;;;;;;;1.33;1.00;;;;;;;;;;8319440;28;20025;-70
2023/07/12 13:17:37;;;;;;;1.95;1.10;;;;;;;;;;8320548;28;20043;-70
2023/07/12 13:21:37;;;;;;;2.35;1.10;;;;;;;;;;8319130;28;20036;-71
2023/07/12 13:25:39;;;;;;;1.20;1.00;;;;;;;;;;8320907;28;20037;-71
2023/07/12 13:29:39;;;;;;;2.05;1.23;;;;;;;;;;8320676;28;20026;-70
2023/07/12 13:33:40;;;;;;;1.98;1.20;;;;;;;;;;8319640;28;20043;-70
2023/07/12 13:37:40;;;;;;;3.10;1.20;;;;;;;;;;8320907;28;20032;-70
2023/07/12 13:41:40;;;;;;;2.33;1.00;;;;;;;;;;8322780;28;20061;-71
2023/07/12 13:45:40;;;;;;;1.13;1.00;;;;;;;;;;8325596;28;20037;-71
2023/07/12 13:49:41;;;;;;;1.90;1.10;;;;;;;;;;8322360;28;20092;-71
2023/07/12 13:53:42;;;;;;;1.47;0.90;;;;;;;;;;8321938;28;20021;-71
2023/07/12 13:57:44;;;;;;;1.05;0.93;;;;;;;;;;8328296;28;20036;-71
2023/07/12 14:01:44;;;;;;;;;;;;;;;;;;8329791;28;20033;-71
2023/07/12 14:05:44;;;;;;;2.35;1.40;;;;;;;;;;8326207;28;20890;-71
2023/07/12 14:09:44;;;;;;;1.98;1.20;;;;;;;;;;8325426;28;20636;-71
2023/07/12 14:13:45;;;;;;;2.20;1.30;;;;;;;;;;8308133;28;20053;-71
2023/07/12 14:17:45;;;;;;;1.70;1.10;;;;;;;;;;8325388;28;20033;-71
2023/07/12 14:21:46;;;;;;;2.35;1.20;;;;;;;;;;8325194;28;20108;-71
2023/07/12 14:25:46;;;;;;;5.40;1.13;;;;;;;;;;8324937;28;20029;-70
2023/07/12 14:29:46;;;;;;;2.58;1.00;;;;;;;;;;8324832;28;20025;-71
2023/07/12 14:33:48;;;;;;;2.35;1.17;;;;;;;;;;8322616;28;20043;-71
2023/07/12 14:37:49;;;;;;;3.53;1.30;;;;;;;;;;8318186;28;20035;-71
2023/07/12 14:41:50;;;;;;;5.78;1.13;;;;;;;;;;8320395;28;20040;-71
2023/07/12 14:45:50;;;;;;;2.63;1.40;;;;;;;;;;8326288;28;20041;-71
2023/07/12 14:49:51;;;;;;;2.13;1.27;;;;;;;;;;8321923;28;20091;-71
2023/07/12 14:53:51;;;;;;;1.20;1.10;;;;;;;;;;8321894;28;20038;-70
2023/07/12 14:57:52;;;;;;;2.35;1.45;;;;;;;;;;8319283;28;20013;-70
2023/07/12 15:01:52;;;;;;;1.73;1.30;;;;;;;;;;8322734;28;20119;-71
2023/07/12 15:05:52;;;;;;;3.78;1.38;;;;;;;;;;8320440;28;20023;-70
2023/07/12 15:09:54;;;;;;;3.03;1.10;;;;;;;;;;8321145;28;20144;-70
2023/07/12 15:13:55;;;;;;;3.78;1.02;;;;;;;;;;8317877;28;20044;-71
2023/07/12 15:18:12;;;;;;;1.33;1.20;;;;;;;;;;8296758;28;20032;-70
2023/07/12 15:22:12;;;;;;;2.13;1.00;;;;;;;;;;8286365;28;20991;-71
2023/07/12 15:26:13;;;;;;;2.80;1.00;;;;;;;;;;8319753;28;20775;-70
2023/07/12 15:30:15;;;;;;;3.70;1.02;;;;;;;;;;8303337;28;20611;-70
2023/07/12 15:34:15;;;;;;;1.95;1.10;;;;;;;;;;8309026;28;20028;-70
2023/07/12 15:38:16;;;;;;;7.00;1.23;;;;;;;;;;8315806;28;20025;-71
2023/07/12 15:42:18;;;;;;;4.78;1.15;;;;;;;;;;8318975;28;20028;-71
2023/07/12 15:46:20;;;;;;;1.90;1.10;;;;;;;;;;8319560;28;20094;-71
2023/07/12 15:50:20;;;;;;;5.43;1.03;;;;;;;;;;8318791;28;21004;-71
2023/07/12 15:54:26;;;;;;;2.85;1.45;;;;;;;;;;8320834;28;20401;-70
2023/07/12 15:58:27;;;;;;;2.83;1.20;;;;;;;;;;8316030;28;20044;-71
2023/07/12 16:02:28;;;;;;;3.93;1.30;;;;;;;;;;8318001;28;20640;-70
2023/07/12 16:06:28;;;;;;;2.80;1.20;;;;;;;;;;8317373;28;20308;-70
2023/07/12 16:10:28;;;;;;;2.70;1.20;;;;;;;;;;8320040;28;20277;-71
2023/07/12 16:14:28;;;;;;;3.13;1.23;;;;;;;;;;8317389;28;20286;-70
2023/07/12 16:18:29;;;;;;;1.77;1.20;;;;;;;;;;8302832;28;20068;-70
2023/07/12 16:22:30;;;;;;;1.55;1.20;;;;;;;;;;8319829;28;20046;-70
2023/07/12 16:26:32;;;;;;;5.50;1.30;;;;;;;;;;8319947;28;20028;-70
2023/07/12 16:30:33;;;;;;;5.57;1.15;;;;;;;;;;8320528;28;20066;-70
2023/07/12 16:34:33;;;;;;;3.78;1.27;;;;;;;;;;8317250;28;20063;-70
2023/07/12 16:38:33;;;;;;;0.98;0.90;;;;;;;;;;8314973;28;20067;-70
2023/07/12 16:42:34;;;;;;;2.70;1.13;;;;;;;;;;8314897;28;20792;-70
2023/07/12 16:46:34;;;;;;;1.42;1.15;;;;;;;;;;8314202;28;20292;-70
2023/07/12 16:50:35;;;;;;;1.13;1.02;;;;;;;;;;8314680;28;20891;-70
2023/07/12 16:54:36;;;;;;;1.55;0.93;;;;;;;;;;8317035;28;20059;-70
2023/07/12 16:58:37;;;;;;;2.17;1.00;;;;;;;;;;8295784;28;20909;-70
2023/07/12 17:02:37;;;;;;;2.20;1.20;;;;;;;;;;8313162;28;20083;-70
2023/07/12 17:06:38;;;;;;;1.58;1.02;;;;;;;;;;8316075;28;20072;-70
2023/07/12 17:10:38;;;;;;;4.53;1.00;;;;;;;;;;8317832;28;20020;-71
2023/07/12 17:14:38;;;;;;;1.20;1.03;;;;;;;;;;8315960;28;20021;-71
2023/07/12 17:18:39;;;;;;;0.85;0.85;;;;;;;;;;8314663;28;20029;-71
2023/07/12 17:22:39;;;;;;;5.70;1.02;;;;;;;;;;8316376;28;20679;-71
2023/07/12 17:26:40;;;;;;;1.47;1.03;;;;;;;;;;8307462;28;20457;-71
2023/07/12 17:30:41;;;;;;;3.03;1.05;;;;;;;;;;8322718;28;20275;-71
2023/07/12 17:34:42;;;;;;;1.13;0.75;;;;;;;;;;8322504;28;20045;-71
2023/07/12 17:38:43;;;;;;;1.38;0.88;;;;;;;;;;8320595;28;20140;-71
2023/07/12 17:42:44;;;;;;;1.02;0.70;;;;;;;;;;8319562;28;20034;-71
2023/07/12 17:46:44;;;;;;;1.67;0.70;;;;;;;;;;8311881;28;20045;-70
2023/07/12 17:50:56;;;;;;;0.85;0.85;;;;;;;;;;8320427;28;20072;-71
2023/07/12 17:54:56;;;;;;;1.92;0.80;;;;;;;;;;8319041;28;20100;-70
2023/07/12 17:58:57;;;;;;;0.80;0.80;;;;;;;;;;8318082;28;20478;-71
2023/07/12 18:02:58;;;;;;;3.33;0.75;;;;;;;;;;8317339;28;20029;-71
2023/07/12 18:06:58;;;;;;;1.10;0.80;;;;;;;;;;8318120;28;20147;-71
2023/07/12 18:10:58;;;;;;;1.40;0.90;;;;;;;;;;8298926;28;20017;-71
2023/07/12 18:15:00;;;;;;;2.97;0.70;;;;;;;;;;8321937;28;20017;-71
2023/07/12 18:19:00;;;;;;;3.67;0.80;;;;;;;;;;8312549;28;20037;-71
2023/07/12 18:23:01;;;;;;;1.15;0.65;;;;;;;;;;8319706;28;20091;-71
2023/07/12 18:27:01;;;;;;;1.60;0.80;;;;;;;;;;8317164;28;20128;-71
2023/07/12 18:31:01;;;;;;;8.93;0.80;;;;;;;;;;8317950;28;20033;-71
2023/07/12 18:35:02;;;;;;;0.70;0.70;;;;;;;;;;8301628;28;20029;-70
2023/07/12 18:39:04;;;;;;;4.47;0.98;;;;;;;;;;8317098;28;20749;-72
2023/07/12 18:43:12;;;;;;;1.27;0.80;;;;;;;;;;8312578;28;20670;-71
2023/07/12 18:47:12;;;;;;;2.15;0.73;;;;;;;;;;8315823;28;20029;-71
2023/07/12 18:51:26;;;;;;;1.13;0.90;;;;;;;;;;8316976;28;20712;-71
2023/07/12 18:55:26;;;;;;;0.90;0.70;;;;;;;;;;8319810;28;20070;-70
2023/07/12 18:59:27;;;;;;;8.17;1.03;;;;;;;;;;8320828;28;20056;-71
2023/07/12 19:03:31;;;;;;;12.13;1.10;;;;;;;;;;8317205;28;20032;-71
2023/07/12 19:07:31;;;;;;;3.35;1.08;;;;;;;;;;8313612;28;20098;-71
2023/07/12 19:11:35;;;;;;;6.60;0.90;;;;;;;;;;8314901;28;20312;-71
2023/07/12 19:15:35;;;;;;;2.45;0.88;;;;;;;;;;8319410;28;20342;-71
2023/07/12 19:19:36;;;;;;;4.32;0.80;;;;;;;;;;8318830;28;20033;-72
2023/07/12 19:23:36;;;;;;;2.70;0.90;;;;;;;;;;8320657;28;20041;-71
2023/07/12 19:27:36;;;;;;;2.65;0.93;;;;;;;;;;8316854;28;20021;-72
2023/07/12 19:31:38;;;;;;;1.80;0.90;;;;;;;;;;8298341;28;20099;-71
2023/07/12 19:35:38;;;;;;;1.30;0.90;;;;;;;;;;8316478;28;20485;-72
2023/07/12 19:39:39;;;;;;;5.75;0.90;;;;;;;;;;8320358;28;20033;-71
2023/07/12 19:43:39;;;;;;;2.25;0.90;;;;;;;;;;8300062;28;21085;-71
2023/07/12 19:47:39;;;;;;;3.60;0.77;;;;;;;;;;8285966;28;20041;-71
2023/07/12 19:51:39;;;;;;;2.72;0.80;;;;;;;;;;8314578;28;20056;-71
2023/07/12 19:55:40;;;;;;;1.88;0.70;;;;;;;;;;8315190;28;20031;-71
2023/07/12 19:59:40;;;;;;;1.80;0.80;;;;;;;;;;8317345;28;20028;-71
2023/07/12 20:03:40;;;;;;;0.98;0.80;;;;;;;;;;8315429;28;20044;-72
2023/07/12 20:07:42;;;;;;;1.20;0.80;;;;;;;;;;8315118;28;20059;-71
2023/07/12 20:11:43;;;;;;;1.73;0.75;;;;;;;;;;8312917;28;20970;-72
2023/07/12 20:15:43;;;;;;;1.17;0.80;;;;;;;;;;8295102;28;20784;-71
2023/07/12 20:19:44;;;;;;;1.17;0.73;;;;;;;;;;8313392;28;20401;-72
2023/07/12 20:23:44;;;;;;;2.22;0.80;;;;;;;;;;8310549;28;20029;-72
2023/07/12 20:27:44;;;;;;;2.95;0.90;;;;;;;;;;8307023;28;20028;-71
2023/07/12 20:31:45;;;;;;;2.33;1.07;;;;;;;;;;8311446;28;20028;-71
2023/07/12 20:35:45;;;;;;;2.28;0.85;;;;;;;;;;8313558;28;20393;-71
2023/07/12 20:39:46;;;;;;;1.48;0.88;;;;;;;;;;8308340;28;20033;-71
2023/07/12 20:43:46;;;;;;;2.17;0.77;;;;;;;;;;8292099;28;20043;-71
2023/07/12 20:47:47;;;;;;;1.65;0.98;;;;;;;;;;8300633;28;21378;-71
2023/07/12 20:51:47;;;;;;;2.93;0.90;;;;;;;;;;8314206;28;20032;-71
2023/07/12 20:55:49;;;;;;;3.47;1.02;;;;;;;;;;8294589;28;20164;-71
2023/07/12 20:59:49;;;;;;;2.50;1.00;;;;;;;;;;8312922;28;20040;-71
2023/07/12 21:03:50;;;;;;;2.83;0.90;;;;;;;;;;8310020;28;20980;-71
2023/07/12 21:07:50;;;;;;;3.83;0.88;;;;;;;;;;8313719;28;20777;-71
2023/07/12 21:11:51;;;;;;;1.92;1.08;;;;;;;;;;8312780;28;20801;-71
2023/07/12 21:15:53;;;;;;;2.25;1.20;;;;;;;;;;8313548;28;20766;-71
2023/07/12 21:19:55;;;;;;;2.60;1.00;;;;;;;;;;8302314;28;20017;-71
2023/07/12 21:23:55;;;;;;;1.60;1.00;;;;;;;;;;8310585;28;20043;-71
2023/07/12 21:27:55;;;;;;;2.20;1.00;;;;;;;;;;8316257;28;20025;-71
2023/07/12 21:31:55;;;;;;;1.98;1.00;;;;;;;;;;8310711;28;20029;-71
2023/07/12 21:35:56;;;;;;;3.53;1.15;;;;;;;;;;8297761;28;20023;-71
2023/07/12 21:39:56;;;;;;;2.72;0.95;;;;;;;;;;8295581;28;20028;-71
2023/07/12 21:43:57;;;;;;;2.60;1.00;;;;;;;;;;8311153;28;20108;-71
2023/07/12 21:47:57;;;;;;;3.00;1.00;;;;;;;;;;8311108;28;20037;-71
2023/07/12 21:51:57;;;;;;;3.83;1.20;;;;;;;;;;8299141;28;20024;-71
2023/07/12 21:55:57;;;;;;;4.13;1.10;;;;;;;;;;8309346;28;20032;-71
2023/07/12 21:59:58;;;;;;;4.40;1.00;;;;;;;;;;8312929;28;20144;-71
2023/07/12 22:03:58;;;;;;;4.30;1.27;;;;;;;;;;8310903;28;20045;-71
2023/07/12 22:07:58;;;;;;;2.60;1.00;;;;;;;;;;8311929;28;20027;-71
2023/07/12 22:11:58;;;;;;;4.00;1.00;;;;;;;;;;8313113;28;20016;-71
2023/07/12 22:15:58;;;;;;;2.30;1.00;;;;;;;;;;8316984;28;20061;-71
2023/07/12 22:19:59;;;;;;;1.73;1.00;;;;;;;;;;8306611;28;20024;-70
2023/07/12 22:24:00;;;;;;;3.87;0.90;;;;;;;;;;8321789;28;20049;-71
2023/07/12 22:28:00;;;;;;;2.38;1.15;;;;;;;;;;8314496;28;21145;-72
2023/07/12 22:32:01;;;;;;;2.75;1.00;;;;;;;;;;8317294;28;20099;-70
2023/07/12 22:36:02;;;;;;;2.55;1.10;;;;;;;;;;8316495;28;20086;-70
2023/07/12 22:40:05;;;;;;;1.98;1.00;;;;;;;;;;8307150;28;20044;-70
2023/07/12 22:44:05;;;;;;;1.85;0.90;;;;;;;;;;8322611;28;20013;-70
2023/07/12 22:48:06;;;;;;;3.67;1.10;;;;;;;;;;8323001;28;20095;-70
2023/07/12 22:52:07;;;;;;;1.77;1.13;;;;;;;;;;8323193;28;20140;-70
2023/07/12 22:56:15;;;;;;;1.75;1.10;;;;;;;;;;8318531;28;20029;-70
2023/07/12 23:00:18;;;;;;;4.93;1.23;;;;;;;;;;8322363;28;20024;-70
2023/07/12 23:04:18;;;;;;;1.43;1.10;;;;;;;;;;8320123;28;20363;-70
2023/07/12 23:08:19;;;;;;;2.10;1.00;;;;;;;;;;8320218;28;20016;-70
2023/07/12 23:12:20;;;;;;;1.80;1.10;;;;;;;;;;8321919;28;20017;-71
2023/07/12 23:16:22;;;;;;;3.03;1.20;;;;;;;;;;8317270;28;20042;-71
2023/07/12 23:20:24;;;;;;;3.20;1.30;;;;;;;;;;8321569;28;20032;-71
2023/07/12 23:24:25;;;;;;;4.57;1.25;;;;;;;;;;8323157;28;20040;-71
2023/07/12 23:28:26;;;;;;;1.30;0.90;;;;;;;;;;8320243;28;20021;-71
2023/07/12 23:32:26;;;;;;;4.35;1.20;;;;;;;;;;8323248;28;20044;-70
2023/07/12 23:36:26;;;;;;;1.20;0.98;;;;;;;;;;8317615;28;20029;-71
2023/07/12 23:40:27;;;;;;;1.95;1.10;;;;;;;;;;8320878;28;20389;-71
2023/07/12 23:44:28;;;;;;;2.43;1.00;;;;;;;;;;8304883;28;20067;-71
2023/07/12 23:48:29;;;;;;;4.93;1.10;;;;;;;;;;8317257;28;20040;-71
2023/07/12 23:52:30;;;;;;;2.22;1.20;;;;;;;;;;8320310;28;20021;-71
2023/07/12 23:56:30;;;;;;;3.05;1.20;;;;;;;;;;8320504;28;20143;-71
